sensor_id;sensor_type;location;lat;lon;timestamp;temperature;humidity
15111;DHT22;7656;51.954;7.998;2023-05-08T00:02:12;12.40;99.90
15111;DHT22;7656;51.954;7.998;2023-05-08T00:06:33;12.40;99.90
15111;DHT22;7656;51.954;7.998;2023-05-08T00:10:55;12.40;99.90
15111;DHT22;7656;51.954;7.998;2023-05-08T00:15:16;12.10;99.90
15111;DHT22;7656;51.954;7.998;2023-05-08T00:19:37;12.00;99.90
15111;DHT22;7656;51.954;7.998;2023-05-08T00:23:59;12.00;99.90
15111;DHT22;7656;51.954;7.998;2023-05-08T00:28:20;12.10;99.90
15111;DHT22;7656;51.954;7.998;2023-05-08T00:32:41;12.30;99.90
15111;DHT22;7656;51.954;7.998;2023-05-08T00:37:02;12.20;99.90
15111;DHT22;7656;51.954;7.998;2023-05-08T00:41:24;12.00;99.90
15111;DHT22;7656;51.954;7.998;2023-05-08T00:45:45;11.80;99.90
15111;DHT22;7656;51.954;7.998;2023-05-08T00:50:07;11.90;99.90
15111;DHT22;7656;51.954;7.998;2023-05-08T00:54:28;12.00;99.90
15111;DHT22;7656;51.954;7.998;2023-05-08T00:58:50;11.90;99.90
15111;DHT22;7656;51.954;7.998;2023-05-08T01:03:12;11.90;99.90
15111;DHT22;7656;51.954;7.998;2023-05-08T01:07:34;11.90;99.90
15111;DHT22;7656;51.954;7.998;2023-05-08T01:12:16;12.00;99.90
15111;DHT22;7656;51.954;7.998;2023-05-08T01:21:41;11.90;99.90
15111;DHT22;7656;51.954;7.998;2023-05-08T01:31:07;11.90;99.90
15111;DHT22;7656;51.954;7.998;2023-05-08T01:35:49;11.80;99.90
15111;DHT22;7656;51.954;7.998;2023-05-08T01:40:22;11.90;99.90
15111;DHT22;7656;51.954;7.998;2023-05-08T01:44:55;12.00;99.90
15111;DHT22;7656;51.954;7.998;2023-05-08T01:49:29;12.20;99.90
15111;DHT22;7656;51.954;7.998;2023-05-08T01:54:00;12.00;99.90
15111;DHT22;7656;51.954;7.998;2023-05-08T01:58:25;11.90;99.90
15111;DHT22;7656;51.954;7.998;2023-05-08T02:02:49;11.70;99.90
15111;DHT22;7656;51.954;7.998;2023-05-08T02:07:11;11.60;99.90
15111;DHT22;7656;51.954;7.998;2023-05-08T02:11:34;11.50;99.90
15111;DHT22;7656;51.954;7.998;2023-05-08T02:15:57;11.50;99.90
15111;DHT22;7656;51.954;7.998;2023-05-08T02:20:20;11.50;99.90
15111;DHT22;7656;51.954;7.998;2023-05-08T02:24:41;11.40;99.90
15111;DHT22;7656;51.954;7.998;2023-05-08T02:29:03;11.40;99.90
15111;DHT22;7656;51.954;7.998;2023-05-08T02:33:26;11.40;99.90
15111;DHT22;7656;51.954;7.998;2023-05-08T02:37:53;11.40;99.90
15111;DHT22;7656;51.954;7.998;2023-05-08T02:42:15;11.50;99.90
15111;DHT22;7656;51.954;7.998;2023-05-08T02:47:28;11.50;99.90
15111;DHT22;7656;51.954;7.998;2023-05-08T02:52:04;11.50;99.90
15111;DHT22;7656;51.954;7.998;2023-05-08T02:56:39;11.30;99.90
15111;DHT22;7656;51.954;7.998;2023-05-08T03:01:11;11.20;99.90
15111;DHT22;7656;51.954;7.998;2023-05-08T03:05:38;11.40;99.90
15111;DHT22;7656;51.954;7.998;2023-05-08T03:10:08;11.40;99.90
15111;DHT22;7656;51.954;7.998;2023-05-08T03:14:38;11.50;99.90
15111;DHT22;7656;51.954;7.998;2023-05-08T03:19:19;11.40;99.90
15111;DHT22;7656;51.954;7.998;2023-05-08T03:23:47;11.40;99.90
15111;DHT22;7656;51.954;7.998;2023-05-08T03:28:10;11.40;99.90
15111;DHT22;7656;51.954;7.998;2023-05-08T03:32:33;11.10;99.90
15111;DHT22;7656;51.954;7.998;2023-05-08T03:36:55;11.10;99.90
15111;DHT22;7656;51.954;7.998;2023-05-08T03:41:16;11.30;99.90
15111;DHT22;7656;51.954;7.998;2023-05-08T03:45:39;11.30;99.90
15111;DHT22;7656;51.954;7.998;2023-05-08T03:50:01;11.20;99.90
15111;DHT22;7656;51.954;7.998;2023-05-08T03:54:23;11.10;99.90
15111;DHT22;7656;51.954;7.998;2023-05-08T03:58:51;11.00;99.90
15111;DHT22;7656;51.954;7.998;2023-05-08T04:08:40;10.90;99.90
15111;DHT22;7656;51.954;7.998;2023-05-08T04:13:11;10.90;99.90
15111;DHT22;7656;51.954;7.998;2023-05-08T04:17:46;10.90;99.90
15111;DHT22;7656;51.954;7.998;2023-05-08T04:22:14;10.80;99.90
15111;DHT22;7656;51.954;7.998;2023-05-08T04:26:38;10.90;99.90
15111;DHT22;7656;51.954;7.998;2023-05-08T04:31:00;11.40;99.90
15111;DHT22;7656;51.954;7.998;2023-05-08T04:35:23;11.30;99.90
15111;DHT22;7656;51.954;7.998;2023-05-08T04:39:49;11.30;99.90
15111;DHT22;7656;51.954;7.998;2023-05-08T04:44:11;11.40;99.90
15111;DHT22;7656;51.954;7.998;2023-05-08T04:48:33;11.90;99.90
15111;DHT22;7656;51.954;7.998;2023-05-08T04:52:55;11.80;99.90
15111;DHT22;7656;51.954;7.998;2023-05-08T04:57:17;11.70;99.90
15111;DHT22;7656;51.954;7.998;2023-05-08T05:01:38;12.00;99.90
15111;DHT22;7656;51.954;7.998;2023-05-08T05:06:00;12.30;99.90
15111;DHT22;7656;51.954;7.998;2023-05-08T05:10:22;12.10;99.90
15111;DHT22;7656;51.954;7.998;2023-05-08T05:14:43;11.60;99.90
15111;DHT22;7656;51.954;7.998;2023-05-08T05:19:04;11.60;99.90
15111;DHT22;7656;51.954;7.998;2023-05-08T05:23:26;11.90;99.90
15111;DHT22;7656;51.954;7.998;2023-05-08T05:27:47;11.80;99.90
15111;DHT22;7656;51.954;7.998;2023-05-08T05:32:09;12.00;99.90
15111;DHT22;7656;51.954;7.998;2023-05-08T05:36:32;12.00;99.90
15111;DHT22;7656;51.954;7.998;2023-05-08T05:40:53;12.10;99.90
15111;DHT22;7656;51.954;7.998;2023-05-08T05:45:14;12.30;99.90
15111;DHT22;7656;51.954;7.998;2023-05-08T05:49:36;12.50;99.90
15111;DHT22;7656;51.954;7.998;2023-05-08T05:53:57;12.90;99.90
15111;DHT22;7656;51.954;7.998;2023-05-08T05:58:20;13.10;99.90
15111;DHT22;7656;51.954;7.998;2023-05-08T06:02:42;13.10;99.90
15111;DHT22;7656;51.954;7.998;2023-05-08T06:07:06;12.80;99.90
15111;DHT22;7656;51.954;7.998;2023-05-08T06:11:27;12.70;99.90
15111;DHT22;7656;51.954;7.998;2023-05-08T06:15:48;12.90;99.90
15111;DHT22;7656;51.954;7.998;2023-05-08T06:20:11;13.20;99.90
15111;DHT22;7656;51.954;7.998;2023-05-08T06:24:33;13.40;99.90
15111;DHT22;7656;51.954;7.998;2023-05-08T06:28:55;13.50;99.90
15111;DHT22;7656;51.954;7.998;2023-05-08T06:33:16;13.40;99.90
15111;DHT22;7656;51.954;7.998;2023-05-08T06:37:38;13.30;99.90
15111;DHT22;7656;51.954;7.998;2023-05-08T06:41:59;13.30;99.90
15111;DHT22;7656;51.954;7.998;2023-05-08T06:46:24;13.40;99.90
15111;DHT22;7656;51.954;7.998;2023-05-08T06:50:45;13.50;99.90
15111;DHT22;7656;51.954;7.998;2023-05-08T06:55:07;13.70;99.90
15111;DHT22;7656;51.954;7.998;2023-05-08T06:59:29;13.60;99.90
15111;DHT22;7656;51.954;7.998;2023-05-08T07:03:50;14.10;99.90
15111;DHT22;7656;51.954;7.998;2023-05-08T07:08:11;14.30;99.90
15111;DHT22;7656;51.954;7.998;2023-05-08T07:12:32;14.20;99.90
15111;DHT22;7656;51.954;7.998;2023-05-08T07:16:53;14.00;99.90
15111;DHT22;7656;51.954;7.998;2023-05-08T07:21:14;13.90;99.90
15111;DHT22;7656;51.954;7.998;2023-05-08T07:25:37;14.10;99.90
15111;DHT22;7656;51.954;7.998;2023-05-08T07:29:59;14.30;99.90
15111;DHT22;7656;51.954;7.998;2023-05-08T07:34:23;14.50;99.90
15111;DHT22;7656;51.954;7.998;2023-05-08T07:38:44;14.70;99.90
15111;DHT22;7656;51.954;7.998;2023-05-08T07:43:06;14.80;99.90
15111;DHT22;7656;51.954;7.998;2023-05-08T07:47:27;15.00;99.90
15111;DHT22;7656;51.954;7.998;2023-05-08T07:51:49;15.10;99.90
15111;DHT22;7656;51.954;7.998;2023-05-08T07:56:10;15.20;99.90
15111;DHT22;7656;51.954;7.998;2023-05-08T08:00:32;15.50;99.90
15111;DHT22;7656;51.954;7.998;2023-05-08T08:04:53;15.50;99.90
15111;DHT22;7656;51.954;7.998;2023-05-08T08:09:14;16.00;99.90
15111;DHT22;7656;51.954;7.998;2023-05-08T08:13:35;16.60;99.90
15111;DHT22;7656;51.954;7.998;2023-05-08T08:17:56;16.90;99.90
15111;DHT22;7656;51.954;7.998;2023-05-08T08:22:17;16.70;99.90
15111;DHT22;7656;51.954;7.998;2023-05-08T08:26:38;16.50;99.90
15111;DHT22;7656;51.954;7.998;2023-05-08T08:31:00;16.40;99.90
15111;DHT22;7656;51.954;7.998;2023-05-08T08:35:21;16.60;99.90
15111;DHT22;7656;51.954;7.998;2023-05-08T08:39:48;17.40;99.90
15111;DHT22;7656;51.954;7.998;2023-05-08T08:44:10;18.10;99.90
15111;DHT22;7656;51.954;7.998;2023-05-08T08:48:31;18.00;99.90
15111;DHT22;7656;51.954;7.998;2023-05-08T08:52:59;18.20;99.90
15111;DHT22;7656;51.954;7.998;2023-05-08T08:57:26;18.00;99.90
15111;DHT22;7656;51.954;7.998;2023-05-08T09:01:52;18.00;99.90
15111;DHT22;7656;51.954;7.998;2023-05-08T09:06:15;18.80;99.90
15111;DHT22;7656;51.954;7.998;2023-05-08T09:10:36;19.60;99.90
15111;DHT22;7656;51.954;7.998;2023-05-08T09:14:58;20.00;99.90
15111;DHT22;7656;51.954;7.998;2023-05-08T09:19:19;20.50;99.90
15111;DHT22;7656;51.954;7.998;2023-05-08T09:23:58;19.80;99.90
15111;DHT22;7656;51.954;7.998;2023-05-08T09:28:24;19.70;99.90
15111;DHT22;7656;51.954;7.998;2023-05-08T09:32:46;19.60;99.90
15111;DHT22;7656;51.954;7.998;2023-05-08T09:41:28;19.10;99.90
15111;DHT22;7656;51.954;7.998;2023-05-08T09:45:49;19.30;99.90
15111;DHT22;7656;51.954;7.998;2023-05-08T09:50:10;19.20;99.90
15111;DHT22;7656;51.954;7.998;2023-05-08T09:54:32;18.80;99.90
15111;DHT22;7656;51.954;7.998;2023-05-08T09:58:53;18.80;99.90
15111;DHT22;7656;51.954;7.998;2023-05-08T10:03:14;18.70;99.90
15111;DHT22;7656;51.954;7.998;2023-05-08T10:07:35;19.20;99.90
15111;DHT22;7656;51.954;7.998;2023-05-08T10:11:57;20.10;99.90
15111;DHT22;7656;51.954;7.998;2023-05-08T10:16:18;20.30;99.90
15111;DHT22;7656;51.954;7.998;2023-05-08T10:20:42;20.40;99.90
15111;DHT22;7656;51.954;7.998;2023-05-08T10:25:11;21.10;99.90
15111;DHT22;7656;51.954;7.998;2023-05-08T10:29:49;21.00;99.90
15111;DHT22;7656;51.954;7.998;2023-05-08T10:34:18;21.00;99.90
15111;DHT22;7656;51.954;7.998;2023-05-08T10:38:40;21.90;99.90
15111;DHT22;7656;51.954;7.998;2023-05-08T10:43:02;22.70;99.90
15111;DHT22;7656;51.954;7.998;2023-05-08T10:52:20;22.10;99.90
15111;DHT22;7656;51.954;7.998;2023-05-08T10:56:47;21.70;99.90
15111;DHT22;7656;51.954;7.998;2023-05-08T11:01:09;21.60;99.90
15111;DHT22;7656;51.954;7.998;2023-05-08T11:05:47;21.70;99.90
15111;DHT22;7656;51.954;7.998;2023-05-08T11:10:12;21.30;99.90
15111;DHT22;7656;51.954;7.998;2023-05-08T11:14:37;20.80;99.90
15111;DHT22;7656;51.954;7.998;2023-05-08T11:19:16;21.10;99.90
15111;DHT22;7656;51.954;7.998;2023-05-08T11:23:38;21.60;99.90
15111;DHT22;7656;51.954;7.998;2023-05-08T11:32:56;21.60;99.90
15111;DHT22;7656;51.954;7.998;2023-05-08T11:37:26;22.50;99.90
15111;DHT22;7656;51.954;7.998;2023-05-08T11:41:49;22.90;99.90
15111;DHT22;7656;51.954;7.998;2023-05-08T11:46:15;23.00;99.90
15111;DHT22;7656;51.954;7.998;2023-05-08T11:50:38;22.80;99.90
15111;DHT22;7656;51.954;7.998;2023-05-08T11:55:02;23.60;99.90
15111;DHT22;7656;51.954;7.998;2023-05-08T12:03:48;24.40;99.90
15111;DHT22;7656;51.954;7.998;2023-05-08T12:08:19;24.50;99.90
15111;DHT22;7656;51.954;7.998;2023-05-08T12:12:42;25.00;99.90
15111;DHT22;7656;51.954;7.998;2023-05-08T12:17:04;25.30;99.90
15111;DHT22;7656;51.954;7.998;2023-05-08T12:21:25;25.10;99.90
15111;DHT22;7656;51.954;7.998;2023-05-08T12:25:50;23.50;99.90
15111;DHT22;7656;51.954;7.998;2023-05-08T12:30:13;23.10;99.90
15111;DHT22;7656;51.954;7.998;2023-05-08T12:34:35;23.00;99.90
15111;DHT22;7656;51.954;7.998;2023-05-08T12:39:15;23.10;99.90
15111;DHT22;7656;51.954;7.998;2023-05-08T12:43:38;22.80;99.90
15111;DHT22;7656;51.954;7.998;2023-05-08T12:48:01;24.00;99.90
15111;DHT22;7656;51.954;7.998;2023-05-08T12:52:23;25.10;99.90
15111;DHT22;7656;51.954;7.998;2023-05-08T12:56:44;24.90;99.90
15111;DHT22;7656;51.954;7.998;2023-05-08T13:01:10;25.20;99.90
15111;DHT22;7656;51.954;7.998;2023-05-08T13:05:39;25.90;99.90
15111;DHT22;7656;51.954;7.998;2023-05-08T13:14:24;27.40;99.90
15111;DHT22;7656;51.954;7.998;2023-05-08T13:18:45;27.90;99.90
15111;DHT22;7656;51.954;7.998;2023-05-08T13:23:07;28.30;99.90
15111;DHT22;7656;51.954;7.998;2023-05-08T13:27:28;28.50;99.90
15111;DHT22;7656;51.954;7.998;2023-05-08T13:31:49;28.60;99.90
15111;DHT22;7656;51.954;7.998;2023-05-08T13:36:11;28.50;99.90
15111;DHT22;7656;51.954;7.998;2023-05-08T13:40:32;28.40;99.90
15111;DHT22;7656;51.954;7.998;2023-05-08T13:44:53;28.20;99.90
15111;DHT22;7656;51.954;7.998;2023-05-08T13:49:14;27.80;99.90
15111;DHT22;7656;51.954;7.998;2023-05-08T13:53:35;27.80;99.90
15111;DHT22;7656;51.954;7.998;2023-05-08T13:57:56;26.20;99.90
15111;DHT22;7656;51.954;7.998;2023-05-08T14:02:18;25.40;99.90
15111;DHT22;7656;51.954;7.998;2023-05-08T14:06:39;25.00;99.90
15111;DHT22;7656;51.954;7.998;2023-05-08T14:11:00;25.10;99.90
15111;DHT22;7656;51.954;7.998;2023-05-08T14:15:21;25.60;99.90
15111;DHT22;7656;51.954;7.998;2023-05-08T14:19:43;26.20;99.90
15111;DHT22;7656;51.954;7.998;2023-05-08T14:24:05;25.40;99.90
15111;DHT22;7656;51.954;7.998;2023-05-08T14:28:27;24.60;99.90
15111;DHT22;7656;51.954;7.998;2023-05-08T14:32:48;25.40;99.90
15111;DHT22;7656;51.954;7.998;2023-05-08T14:37:09;25.30;99.90
15111;DHT22;7656;51.954;7.998;2023-05-08T14:41:31;24.60;99.90
15111;DHT22;7656;51.954;7.998;2023-05-08T14:45:52;23.70;99.90
15111;DHT22;7656;51.954;7.998;2023-05-08T14:50:13;23.60;99.90
15111;DHT22;7656;51.954;7.998;2023-05-08T14:54:35;22.70;99.90
15111;DHT22;7656;51.954;7.998;2023-05-08T14:58:56;22.40;99.90
15111;DHT22;7656;51.954;7.998;2023-05-08T15:03:17;22.10;99.90
15111;DHT22;7656;51.954;7.998;2023-05-08T15:07:38;22.10;99.90
15111;DHT22;7656;51.954;7.998;2023-05-08T15:11:59;21.80;99.90
15111;DHT22;7656;51.954;7.998;2023-05-08T15:16:20;21.50;99.90
15111;DHT22;7656;51.954;7.998;2023-05-08T15:20:41;20.50;99.90
15111;DHT22;7656;51.954;7.998;2023-05-08T15:25:03;20.30;99.90
15111;DHT22;7656;51.954;7.998;2023-05-08T15:29:25;19.80;99.90
15111;DHT22;7656;51.954;7.998;2023-05-08T15:33:46;19.40;99.90
15111;DHT22;7656;51.954;7.998;2023-05-08T15:38:07;19.20;99.90
15111;DHT22;7656;51.954;7.998;2023-05-08T15:42:31;19.10;99.90
15111;DHT22;7656;51.954;7.998;2023-05-08T15:46:52;19.30;99.90
15111;DHT22;7656;51.954;7.998;2023-05-08T15:51:13;19.50;99.90
15111;DHT22;7656;51.954;7.998;2023-05-08T15:55:34;19.10;99.90
15111;DHT22;7656;51.954;7.998;2023-05-08T15:59:55;18.80;99.90
15111;DHT22;7656;51.954;7.998;2023-05-08T16:04:16;18.50;99.90
15111;DHT22;7656;51.954;7.998;2023-05-08T16:08:38;18.20;99.90
15111;DHT22;7656;51.954;7.998;2023-05-08T16:12:59;18.10;99.90
15111;DHT22;7656;51.954;7.998;2023-05-08T16:17:20;18.20;99.90
15111;DHT22;7656;51.954;7.998;2023-05-08T16:21:41;18.00;99.90
15111;DHT22;7656;51.954;7.998;2023-05-08T16:26:05;18.10;99.90
15111;DHT22;7656;51.954;7.998;2023-05-08T16:30:26;17.80;99.90
15111;DHT22;7656;51.954;7.998;2023-05-08T16:34:48;17.80;99.90
15111;DHT22;7656;51.954;7.998;2023-05-08T16:39:09;17.70;99.90
15111;DHT22;7656;51.954;7.998;2023-05-08T16:43:31;17.70;99.90
15111;DHT22;7656;51.954;7.998;2023-05-08T16:47:52;17.60;99.90
15111;DHT22;7656;51.954;7.998;2023-05-08T16:52:14;18.00;99.90
15111;DHT22;7656;51.954;7.998;2023-05-08T16:56:35;18.00;99.90
15111;DHT22;7656;51.954;7.998;2023-05-08T17:00:56;18.40;99.90
15111;DHT22;7656;51.954;7.998;2023-05-08T17:05:17;18.90;99.90
15111;DHT22;7656;51.954;7.998;2023-05-08T17:09:39;19.10;99.90
15111;DHT22;7656;51.954;7.998;2023-05-08T17:14:00;18.80;99.90
15111;DHT22;7656;51.954;7.998;2023-05-08T17:18:21;19.00;99.90
15111;DHT22;7656;51.954;7.998;2023-05-08T17:22:42;19.20;99.90
15111;DHT22;7656;51.954;7.998;2023-05-08T17:27:07;19.30;99.90
15111;DHT22;7656;51.954;7.998;2023-05-08T17:31:28;19.40;99.90
15111;DHT22;7656;51.954;7.998;2023-05-08T17:35:49;19.20;99.90
15111;DHT22;7656;51.954;7.998;2023-05-08T17:40:10;19.10;99.90
15111;DHT22;7656;51.954;7.998;2023-05-08T17:44:32;18.70;99.90
15111;DHT22;7656;51.954;7.998;2023-05-08T17:48:53;18.70;99.90
15111;DHT22;7656;51.954;7.998;2023-05-08T17:53:14;18.50;99.90
15111;DHT22;7656;51.954;7.998;2023-05-08T17:57:35;18.90;99.90
15111;DHT22;7656;51.954;7.998;2023-05-08T18:01:56;18.90;99.90
15111;DHT22;7656;51.954;7.998;2023-05-08T18:06:17;18.90;99.90
15111;DHT22;7656;51.954;7.998;2023-05-08T18:10:38;18.70;99.90
15111;DHT22;7656;51.954;7.998;2023-05-08T18:15:03;18.60;99.90
15111;DHT22;7656;51.954;7.998;2023-05-08T18:19:25;18.70;99.90
15111;DHT22;7656;51.954;7.998;2023-05-08T18:23:46;18.70;99.90
15111;DHT22;7656;51.954;7.998;2023-05-08T18:28:07;18.70;99.90
15111;DHT22;7656;51.954;7.998;2023-05-08T18:32:28;18.70;99.90
15111;DHT22;7656;51.954;7.998;2023-05-08T18:36:49;18.50;99.90
15111;DHT22;7656;51.954;7.998;2023-05-08T18:41:10;18.60;99.90
15111;DHT22;7656;51.954;7.998;2023-05-08T18:45:31;18.70;99.90
15111;DHT22;7656;51.954;7.998;2023-05-08T18:49:52;18.60;99.90
15111;DHT22;7656;51.954;7.998;2023-05-08T18:54:14;18.60;99.90
15111;DHT22;7656;51.954;7.998;2023-05-08T18:58:35;18.60;99.90
15111;DHT22;7656;51.954;7.998;2023-05-08T19:02:57;18.60;99.90
15111;DHT22;7656;51.954;7.998;2023-05-08T19:07:19;18.60;99.90
15111;DHT22;7656;51.954;7.998;2023-05-08T19:11:40;18.70;99.90
15111;DHT22;7656;51.954;7.998;2023-05-08T19:16:01;18.80;99.90
15111;DHT22;7656;51.954;7.998;2023-05-08T19:20:22;18.50;99.90
15111;DHT22;7656;51.954;7.998;2023-05-08T19:24:44;18.00;99.90
15111;DHT22;7656;51.954;7.998;2023-05-08T19:29:05;17.70;99.90
15111;DHT22;7656;51.954;7.998;2023-05-08T19:33:26;17.90;99.90
15111;DHT22;7656;51.954;7.998;2023-05-08T19:37:47;17.60;99.90
15111;DHT22;7656;51.954;7.998;2023-05-08T19:42:08;17.50;99.90
15111;DHT22;7656;51.954;7.998;2023-05-08T19:46:31;17.60;99.90
15111;DHT22;7656;51.954;7.998;2023-05-08T19:50:52;17.70;99.90
15111;DHT22;7656;51.954;7.998;2023-05-08T19:55:14;17.40;99.90
15111;DHT22;7656;51.954;7.998;2023-05-08T19:59:36;17.30;99.90
15111;DHT22;7656;51.954;7.998;2023-05-08T20:03:57;17.30;99.90
15111;DHT22;7656;51.954;7.998;2023-05-08T20:08:18;17.30;99.90
15111;DHT22;7656;51.954;7.998;2023-05-08T20:12:39;17.20;99.90
15111;DHT22;7656;51.954;7.998;2023-05-08T20:17:01;17.10;99.90
15111;DHT22;7656;51.954;7.998;2023-05-08T20:21:23;16.80;99.90
15111;DHT22;7656;51.954;7.998;2023-05-08T20:25:45;16.80;99.90
15111;DHT22;7656;51.954;7.998;2023-05-08T20:30:08;16.60;99.90
15111;DHT22;7656;51.954;7.998;2023-05-08T20:34:36;16.10;99.90
15111;DHT22;7656;51.954;7.998;2023-05-08T20:39:01;15.80;99.90
15111;DHT22;7656;51.954;7.998;2023-05-08T20:43:23;15.70;99.90
15111;DHT22;7656;51.954;7.998;2023-05-08T20:48:05;15.80;99.90
15111;DHT22;7656;51.954;7.998;2023-05-08T20:52:34;16.00;99.90
15111;DHT22;7656;51.954;7.998;2023-05-08T20:57:02;16.00;99.90
15111;DHT22;7656;51.954;7.998;2023-05-08T21:01:31;16.10;99.90
15111;DHT22;7656;51.954;7.998;2023-05-08T21:05:56;16.10;99.90
15111;DHT22;7656;51.954;7.998;2023-05-08T21:10:25;16.00;99.90
15111;DHT22;7656;51.954;7.998;2023-05-08T21:14:59;16.20;99.90
15111;DHT22;7656;51.954;7.998;2023-05-08T21:19:27;16.10;99.90
15111;DHT22;7656;51.954;7.998;2023-05-08T21:23:56;16.30;99.90
15111;DHT22;7656;51.954;7.998;2023-05-08T21:28:19;16.50;99.90
15111;DHT22;7656;51.954;7.998;2023-05-08T21:32:44;16.50;99.90
15111;DHT22;7656;51.954;7.998;2023-05-08T21:37:06;16.10;99.90
15111;DHT22;7656;51.954;7.998;2023-05-08T21:41:31;15.70;99.90
15111;DHT22;7656;51.954;7.998;2023-05-08T21:45:53;15.80;99.90
15111;DHT22;7656;51.954;7.998;2023-05-08T21:50:22;15.80;99.90
15111;DHT22;7656;51.954;7.998;2023-05-08T21:54:49;16.00;99.90
15111;DHT22;7656;51.954;7.998;2023-05-08T21:59:14;15.70;99.90
15111;DHT22;7656;51.954;7.998;2023-05-08T22:03:45;15.20;99.90
15111;DHT22;7656;51.954;7.998;2023-05-08T22:08:13;15.00;99.90
15111;DHT22;7656;51.954;7.998;2023-05-08T22:12:35;15.00;99.90
15111;DHT22;7656;51.954;7.998;2023-05-08T22:16:57;14.90;99.90
15111;DHT22;7656;51.954;7.998;2023-05-08T22:21:22;15.00;99.90
15111;DHT22;7656;51.954;7.998;2023-05-08T22:25:50;15.20;99.90
15111;DHT22;7656;51.954;7.998;2023-05-08T22:30:13;15.40;99.90
15111;DHT22;7656;51.954;7.998;2023-05-08T22:34:34;15.50;99.90
15111;DHT22;7656;51.954;7.998;2023-05-08T22:38:56;15.50;99.90
15111;DHT22;7656;51.954;7.998;2023-05-08T22:43:17;15.10;99.90
15111;DHT22;7656;51.954;7.998;2023-05-08T22:47:38;14.90;99.90
15111;DHT22;7656;51.954;7.998;2023-05-08T22:52:00;15.00;99.90
15111;DHT22;7656;51.954;7.998;2023-05-08T22:56:21;15.20;99.90
15111;DHT22;7656;51.954;7.998;2023-05-08T23:00:42;15.30;99.90
15111;DHT22;7656;51.954;7.998;2023-05-08T23:05:04;15.30;99.90
15111;DHT22;7656;51.954;7.998;2023-05-08T23:09:26;15.10;99.90
15111;DHT22;7656;51.954;7.998;2023-05-08T23:13:47;15.30;99.90
15111;DHT22;7656;51.954;7.998;2023-05-08T23:18:08;15.10;99.90
15111;DHT22;7656;51.954;7.998;2023-05-08T23:22:30;15.20;99.90
15111;DHT22;7656;51.954;7.998;2023-05-08T23:26:51;15.30;99.90
15111;DHT22;7656;51.954;7.998;2023-05-08T23:31:13;15.40;99.90
15111;DHT22;7656;51.954;7.998;2023-05-08T23:35:34;15.70;99.90
15111;DHT22;7656;51.954;7.998;2023-05-08T23:39:55;15.80;99.90
15111;DHT22;7656;51.954;7.998;2023-05-08T23:44:16;15.90;99.90
15111;DHT22;7656;51.954;7.998;2023-05-08T23:48:37;15.90;99.90
15111;DHT22;7656;51.954;7.998;2023-05-08T23:52:58;15.70;99.90
15111;DHT22;7656;51.954;7.998;2023-05-08T23:57:21;15.90;99.90
